Time;durP1;ratioP1;P1;durP2;ratioP2;P2;SDS_P1;SDS_P2;PMS_P1;PMS_P2;Temp;Humidity;BMP_temperature;BMP_pressure;BME280_temperature;BME280_humidity;BME280_pressure;Samples;Min_cycle;Max_cycle;Signal;HPM_P1;HPM_P2
2022/10/28 00:01:17;;;;;;;7.00;4.30;;;16.80;99.90;;;;;;5086260;28;20167;-70
2022/10/28 00:03:48;;;;;;;9.37;4.90;;;16.80;99.90;;;;;;5053762;28;20216;-69
2022/10/28 00:06:35;;;;;;;7.33;4.50;;;16.80;99.90;;;;;;5054119;28;20456;-70
2022/10/28 00:09:01;;;;;;;9.17;6.00;;;16.80;99.90;;;;;;5052941;28;20452;-69
2022/10/28 00:11:29;;;;;;;10.47;4.93;;;16.80;99.90;;;;;;5086177;28;20930;-70
2022/10/28 00:13:57;;;;;;;11.47;5.20;;;16.80;99.90;;;;;;5053707;28;20409;-70
2022/10/28 00:16:31;;;;;;;7.90;5.30;;;16.90;99.90;;;;;;5061695;28;20463;-69
2022/10/28 00:18:58;;;;;;;5.67;4.27;;;16.90;99.90;;;;;;5056344;28;20512;-70
2022/10/28 00:21:27;;;;;;;13.37;5.47;;;16.80;99.90;;;;;;5057960;28;20428;-70
2022/10/28 00:23:53;;;;;;;11.73;4.73;;;16.90;99.90;;;;;;5057879;28;20459;-69
2022/10/28 00:26:23;;;;;;;7.63;4.10;;;16.80;99.90;;;;;;5066287;28;20420;-69
2022/10/28 00:28:52;;;;;;;9.70;4.77;;;16.90;99.90;;;;;;5077618;28;20428;-69
2022/10/28 00:31:19;;;;;;;7.63;4.00;;;16.90;99.90;;;;;;5074589;28;20459;-69
2022/10/28 00:33:46;;;;;;;9.60;5.13;;;16.90;99.90;;;;;;5075448;28;20415;-69
2022/10/28 00:36:21;;;;;;;8.90;4.60;;;16.90;99.90;;;;;;5067025;28;20938;-69
2022/10/28 00:38:48;;;;;;;6.57;4.50;;;16.90;99.90;;;;;;5055339;28;20436;-69
2022/10/28 00:41:23;;;;;;;7.23;4.00;;;17.00;99.90;;;;;;5055209;28;20405;-69
2022/10/28 00:43:51;;;;;;;10.97;4.43;;;16.90;99.90;;;;;;5055300;28;20439;-69
2022/10/28 00:46:41;;;;;;;5.90;4.57;;;17.00;99.90;;;;;;5062938;28;20792;-69
2022/10/28 00:49:19;;;;;;;9.40;4.10;;;17.00;99.90;;;;;;5075035;28;20448;-70
2022/10/28 00:51:48;;;;;;;14.17;5.07;;;17.00;99.90;;;;;;5076183;28;20439;-70
2022/10/28 00:54:15;;;;;;;5.37;4.60;;;17.00;99.90;;;;;;5075363;28;20455;-69
2022/10/28 00:56:48;;;;;;;9.93;4.13;;;17.00;99.90;;;;;;5065148;28;21019;-70
2022/10/28 00:59:20;;;;;;;15.13;5.40;;;17.00;99.90;;;;;;5089584;28;20961;-69
2022/10/28 01:01:45;;;;;;;7.30;4.07;;;17.00;99.90;;;;;;5056718;28;20390;-69
2022/10/28 01:04:12;;;;;;;5.10;4.57;;;17.00;99.90;;;;;;5056670;28;20496;-69
2022/10/28 01:06:38;;;;;;;10.40;5.47;;;17.00;99.90;;;;;;5066920;28;20524;-69
2022/10/28 01:09:03;;;;;;;7.53;4.03;;;17.10;99.90;;;;;;5076335;28;20498;-69
2022/10/28 01:11:51;;;;;;;7.53;4.43;;;17.10;99.90;;;;;;5074068;28;20416;-70
2022/10/28 01:14:27;;;;;;;9.00;3.83;;;17.00;99.90;;;;;;5075215;28;20202;-70
2022/10/28 01:17:17;;;;;;;12.10;5.90;;;17.00;99.90;;;;;;5067184;28;20518;-70
2022/10/28 01:20:13;;;;;;;8.23;4.27;;;17.00;99.90;;;;;;5059170;28;20425;-71
2022/10/28 01:22:56;;;;;;;20.43;4.83;;;16.90;99.90;;;;;;5059275;28;20463;-71
2022/10/28 01:25:39;;;;;;;7.40;4.53;;;16.90;99.90;;;;;;5058871;28;20413;-70
2022/10/28 01:28:19;;;;;;;6.30;4.50;;;16.90;99.90;;;;;;5039440;28;20464;-70
2022/10/28 01:31:16;;;;;;;5.40;3.77;;;17.00;99.90;;;;;;5038439;28;20853;-70
2022/10/28 01:34:02;;;;;;;6.10;4.37;;;17.00;99.90;;;;;;5039468;28;20410;-69
2022/10/28 01:36:53;;;;;;;9.70;5.07;;;16.90;99.90;;;;;;5078303;28;20460;-70
2022/10/28 01:39:44;;;;;;;11.83;4.33;;;16.90;99.90;;;;;;5053793;28;20490;-69
2022/10/28 01:42:31;;;;;;;6.10;4.00;;;16.90;99.90;;;;;;5054250;28;20447;-69
2022/10/28 01:45:02;;;;;;;4.77;4.17;;;16.80;99.90;;;;;;5053883;28;20415;-69
2022/10/28 01:47:34;;;;;;;13.43;5.03;;;16.80;99.90;;;;;;5054260;28;20976;-69
2022/10/28 01:50:13;;;;;;;7.03;4.30;;;16.90;99.90;;;;;;5053936;28;20481;-69
2022/10/28 01:52:41;;;;;;;7.63;3.70;;;16.90;99.90;;;;;;5086353;28;20444;-69
2022/10/28 01:55:13;;;;;;;10.07;5.23;;;16.80;99.90;;;;;;5053620;28;20456;-69
2022/10/28 01:57:40;;;;;;;7.43;4.90;;;16.90;99.90;;;;;;5071161;28;20456;-69
2022/10/28 02:00:07;;;;;;;9.60;4.60;;;16.90;99.90;;;;;;5073791;28;20420;-69
2022/10/28 02:02:36;;;;;;;9.03;4.27;;;16.90;99.90;;;;;;5073815;28;20500;-69
2022/10/28 02:05:41;;;;;;;7.77;5.10;;;16.90;99.90;;;;;;5073393;28;20775;-69
2022/10/28 02:08:19;;;;;;;4.20;3.80;;;16.90;99.90;;;;;;5033573;28;20437;-69
2022/10/28 02:11:18;;;;;;;8.03;5.83;;;16.90;99.90;;;;;;5033710;28;20414;-69
2022/10/28 02:14:06;;;;;;;7.07;4.60;;;17.00;99.90;;;;;;5033792;28;20405;-70
2022/10/28 02:16:44;;;;;;;7.40;4.63;;;16.90;99.90;;;;;;5041305;28;21000;-70
2022/10/28 02:19:48;;;;;;;13.40;5.70;;;16.90;99.90;;;;;;5053416;28;20534;-70
2022/10/28 02:22:34;;;;;;;8.40;4.70;;;16.90;99.90;;;;;;5053472;28;20493;-70
2022/10/28 02:25:10;;;;;;;10.63;5.20;;;16.80;99.90;;;;;;5053140;28;20408;-70
2022/10/28 02:27:45;;;;;;;8.00;5.30;;;16.80;99.90;;;;;;5071889;28;20420;-71
2022/10/28 02:30:16;;;;;;;6.70;5.60;;;16.80;99.90;;;;;;5073232;28;20807;-71
2022/10/28 02:32:45;;;;;;;7.00;3.93;;;16.70;99.90;;;;;;5073224;28;20404;-71
2022/10/28 02:35:16;;;;;;;6.67;4.50;;;16.70;99.90;;;;;;5072864;28;20451;-71
2022/10/28 02:37:45;;;;;;;7.73;6.17;;;16.60;99.90;;;;;;5053427;28;20421;-71
2022/10/28 02:40:17;;;;;;;10.47;4.30;;;16.60;99.90;;;;;;5054283;28;20486;-71
2022/10/28 02:42:50;;;;;;;14.57;3.80;;;16.60;99.90;;;;;;5052073;28;20413;-71
2022/10/28 02:45:24;;;;;;;5.07;4.57;;;16.60;99.90;;;;;;5052873;28;20774;-70
2022/10/28 02:48:15;;;;;;;9.50;4.93;;;16.40;99.90;;;;;;5072909;28;20458;-70
2022/10/28 02:50:50;;;;;;;10.53;5.60;;;16.30;99.90;;;;;;5071498;28;20528;-70
2022/10/28 02:53:20;;;;;;;7.70;4.30;;;16.30;99.90;;;;;;5072922;28;20807;-70
2022/10/28 02:55:51;;;;;;;9.03;4.60;;;16.20;99.90;;;;;;5066977;28;20895;-71
2022/10/28 02:58:17;;;;;;;5.80;4.40;;;16.20;99.90;;;;;;5052715;28;20754;-71
2022/10/28 03:00:46;;;;;;;5.83;5.27;;;16.20;99.90;;;;;;5052687;28;20409;-71
2022/10/28 03:03:12;;;;;;;12.87;4.87;;;16.20;99.90;;;;;;5052771;28;20394;-71
2022/10/28 03:05:38;;;;;;;8.57;3.87;;;16.20;99.90;;;;;;5052392;28;20398;-71
2022/10/28 03:08:04;;;;;;;12.03;4.50;;;16.20;99.90;;;;;;5060353;28;20447;-70
2022/10/28 03:10:29;;;;;;;7.50;5.27;;;16.20;99.90;;;;;;5071179;28;20190;-70
2022/10/28 03:12:55;;;;;;;7.30;4.70;;;16.20;99.90;;;;;;5071203;28;20599;-71
2022/10/28 03:15:20;;;;;;;7.47;4.60;;;16.20;99.90;;;;;;5072029;28;20240;-71
2022/10/28 03:17:46;;;;;;;8.20;5.47;;;16.10;99.90;;;;;;5072359;28;20162;-71
2022/10/28 03:20:11;;;;;;;8.83;5.00;;;16.10;99.90;;;;;;5061231;28;20195;-71
2022/10/28 03:22:37;;;;;;;13.00;5.40;;;16.10;99.90;;;;;;5052351;28;20163;-71
2022/10/28 03:25:02;;;;;;;10.63;5.10;;;16.10;99.90;;;;;;5053588;28;20779;-71
2022/10/28 03:27:28;;;;;;;8.53;5.13;;;16.10;99.90;;;;;;5057817;28;20232;-71
2022/10/28 03:29:53;;;;;;;4.80;4.30;;;16.00;99.90;;;;;;5073731;28;20611;-71
2022/10/28 03:32:19;;;;;;;5.53;4.60;;;16.00;99.90;;;;;;5072967;28;20189;-71
2022/10/28 03:34:46;;;;;;;7.37;4.60;;;16.00;99.90;;;;;;5071776;28;20181;-70
2022/10/28 03:37:12;;;;;;;10.30;5.00;;;15.90;99.90;;;;;;5069311;28;20835;-70
2022/10/28 03:39:37;;;;;;;7.77;4.27;;;15.90;99.90;;;;;;5050575;28;20508;-71
2022/10/28 03:42:03;;;;;;;5.97;3.33;;;15.90;99.90;;;;;;5054192;28;20215;-72
2022/10/28 03:44:28;;;;;;;5.60;3.67;;;15.90;99.90;;;;;;5057148;28;20634;-71
2022/10/28 03:46:54;;;;;;;9.57;4.80;;;15.80;99.90;;;;;;5054267;28;20178;-71
2022/10/28 03:49:19;;;;;;;9.40;4.60;;;15.80;99.90;;;;;;5051757;28;20620;-70
2022/10/28 03:51:45;;;;;;;5.27;3.77;;;15.80;99.90;;;;;;5051761;28;20237;-71
2022/10/28 03:54:10;;;;;;;5.67;4.30;;;15.80;99.90;;;;;;5051524;28;20178;-71
2022/10/28 03:56:38;;;;;;;8.03;4.63;;;15.80;99.90;;;;;;5059722;28;20199;-71
2022/10/28 03:59:04;;;;;;;11.80;4.63;;;15.80;99.90;;;;;;5079720;28;20190;-72
2022/10/28 04:01:29;;;;;;;6.83;4.90;;;15.80;99.90;;;;;;5075761;28;20405;-71
2022/10/28 04:03:55;;;;;;;11.00;4.50;;;15.80;99.90;;;;;;5070553;28;20162;-70
2022/10/28 04:06:20;;;;;;;4.90;3.90;;;15.80;99.90;;;;;;5071676;28;20167;-70
2022/10/28 04:08:46;;;;;;;6.63;3.67;;;15.80;99.90;;;;;;5067261;28;20190;-70
2022/10/28 04:11:11;;;;;;;8.17;4.10;;;15.80;99.90;;;;;;5051777;28;20175;-70
2022/10/28 04:13:37;;;;;;;9.93;3.90;;;15.80;99.90;;;;;;5051806;28;20528;-71
2022/10/28 04:16:02;;;;;;;6.50;4.17;;;15.80;99.90;;;;;;5051158;28;20194;-71
2022/10/28 04:18:28;;;;;;;9.97;5.00;;;15.90;99.90;;;;;;5051657;28;20159;-71
2022/10/28 04:20:54;;;;;;;9.00;4.37;;;15.90;99.90;;;;;;5051863;28;20167;-70
2022/10/28 04:23:19;;;;;;;10.37;4.30;;;15.90;99.90;;;;;;5051666;28;20167;-70
2022/10/28 04:25:45;;;;;;;8.73;4.13;;;15.90;99.90;;;;;;5051377;28;20531;-70
2022/10/28 04:28:10;;;;;;;14.33;4.37;;;16.00;99.90;;;;;;5052400;28;20167;-70
2022/10/28 04:30:36;;;;;;;7.50;4.10;;;16.00;99.90;;;;;;5085288;28;20201;-70
2022/10/28 04:33:01;;;;;;;6.83;5.27;;;16.00;99.90;;;;;;5078694;28;20541;-71
2022/10/28 04:35:27;;;;;;;7.00;4.20;;;16.10;99.90;;;;;;5031300;28;20210;-71
2022/10/28 04:37:52;;;;;;;11.87;6.77;;;16.10;99.90;;;;;;5032056;28;20167;-72
2022/10/28 04:40:18;;;;;;;8.70;4.00;;;16.10;99.90;;;;;;5035302;28;20282;-72
2022/10/28 04:42:43;;;;;;;8.33;3.53;;;16.10;99.90;;;;;;5037024;28;20164;-71
2022/10/28 04:45:09;;;;;;;6.13;4.20;;;16.10;99.90;;;;;;5049963;28;20208;-71
2022/10/28 04:47:35;;;;;;;10.00;3.87;;;16.20;99.90;;;;;;5073400;28;20185;-73
2022/10/28 04:50:01;;;;;;;6.77;3.63;;;16.10;99.90;;;;;;5073700;28;20444;-73
2022/10/28 04:52:27;;;;;;;7.93;4.63;;;16.20;99.90;;;;;;5073511;28;20531;-72
2022/10/28 04:54:52;;;;;;;7.77;3.60;;;16.30;99.90;;;;;;5073245;28;20465;-72
2022/10/28 04:57:18;;;;;;;8.90;3.60;;;16.30;99.90;;;;;;5061146;28;20190;-71
2022/10/28 04:59:44;;;;;;;7.13;4.57;;;16.40;99.90;;;;;;5053388;28;20187;-73
2022/10/28 05:02:10;;;;;;;6.27;4.30;;;16.30;99.90;;;;;;5059120;28;20178;-72
2022/10/28 05:04:35;;;;;;;6.33;4.67;;;16.30;99.90;;;;;;5055193;28;21084;-70
2022/10/28 05:07:01;;;;;;;9.33;4.50;;;16.30;99.90;;;;;;5054832;28;20285;-70
2022/10/28 05:09:26;;;;;;;5.50;4.77;;;16.30;99.90;;;;;;5054684;28;20191;-71
2022/10/28 05:11:53;;;;;;;7.30;4.17;;;16.30;99.90;;;;;;5054825;28;20163;-71
2022/10/28 05:14:18;;;;;;;7.90;4.40;;;16.30;99.90;;;;;;5054534;28;20167;-72
2022/10/28 05:16:44;;;;;;;9.33;4.70;;;16.20;99.90;;;;;;5054708;28;20518;-72
2022/10/28 05:19:09;;;;;;;15.20;4.50;;;16.20;99.90;;;;;;5054621;28;20186;-72
2022/10/28 05:21:35;;;;;;;8.77;5.60;;;16.20;99.90;;;;;;5069314;28;20640;-72
2022/10/28 05:24:00;;;;;;;21.33;4.67;;;16.20;99.90;;;;;;5074710;28;20167;-72
2022/10/28 05:26:26;;;;;;;8.47;4.70;;;16.10;99.90;;;;;;5074459;28;20174;-72
2022/10/28 05:28:51;;;;;;;11.03;3.60;;;16.10;99.90;;;;;;5074360;28;20193;-72
2022/10/28 05:31:17;;;;;;;6.93;3.70;;;16.10;99.90;;;;;;5076878;28;20529;-71
2022/10/28 05:33:43;;;;;;;11.40;5.40;;;16.10;99.90;;;;;;5067871;28;20190;-71
2022/10/28 05:36:09;;;;;;;16.50;4.20;;;16.00;99.90;;;;;;5054398;28;20449;-71
2022/10/28 05:38:34;;;;;;;10.40;4.07;;;16.00;99.90;;;;;;5054252;28;20179;-71
2022/10/28 05:41:00;;;;;;;5.77;4.53;;;16.00;99.90;;;;;;5058416;28;20191;-72
2022/10/28 05:43:26;;;;;;;10.73;4.97;;;16.00;99.90;;;;;;5052948;28;20645;-72
2022/10/28 05:45:56;;;;;;;8.50;4.90;;;15.90;99.90;;;;;;5068447;28;20189;-70
2022/10/28 05:48:22;;;;;;;8.07;4.23;;;15.90;99.90;;;;;;5074235;28;20177;-71
2022/10/28 05:50:48;;;;;;;6.27;4.73;;;15.90;99.90;;;;;;5073345;28;20428;-70
2022/10/28 05:53:14;;;;;;;7.53;4.00;;;15.90;99.90;;;;;;5074968;28;20393;-71
2022/10/28 05:55:40;;;;;;;5.83;4.27;;;15.80;99.90;;;;;;5074164;28;20447;-74
2022/10/28 05:58:05;;;;;;;6.73;3.93;;;15.80;99.90;;;;;;5072668;28;20218;-73
2022/10/28 06:00:31;;;;;;;5.67;3.70;;;15.80;99.90;;;;;;5060515;28;20197;-73
2022/10/28 06:03:09;;;;;;;6.97;4.50;;;15.80;99.90;;;;;;5074061;28;20174;-72
2022/10/28 06:05:36;;;;;;;6.90;4.57;;;15.70;99.90;;;;;;5078362;28;20404;-72
2022/10/28 06:08:03;;;;;;;8.43;4.23;;;15.80;99.90;;;;;;5076439;28;20910;-72
2022/10/28 06:10:29;;;;;;;8.27;4.23;;;15.70;99.90;;;;;;5073810;28;20924;-71
2022/10/28 06:12:56;;;;;;;9.07;4.33;;;15.70;99.90;;;;;;5057697;28;20413;-71
2022/10/28 06:15:21;;;;;;;6.70;4.17;;;15.70;99.90;;;;;;5033137;28;20309;-71
2022/10/28 06:17:48;;;;;;;5.90;4.00;;;15.80;99.90;;;;;;5033140;28;20469;-71
2022/10/28 06:20:14;;;;;;;4.20;3.80;;;15.70;99.90;;;;;;5033494;28;20186;-70
2022/10/28 06:22:50;;;;;;;8.60;4.20;;;15.70;99.90;;;;;;5033531;28;20410;-70
2022/10/28 06:25:16;;;;;;;12.83;4.47;;;15.70;99.90;;;;;;5033143;28;20414;-70
2022/10/28 06:27:42;;;;;;;5.70;3.47;;;15.70;99.90;;;;;;5033419;28;20509;-70
2022/10/28 06:30:08;;;;;;;8.47;4.63;;;15.80;99.90;;;;;;5035468;28;20429;-71
2022/10/28 06:32:33;;;;;;;5.57;3.47;;;15.80;99.90;;;;;;5067016;28;20176;-71
2022/10/28 06:34:59;;;;;;;6.40;4.63;;;15.80;99.90;;;;;;5034385;28;20429;-70
2022/10/28 06:37:24;;;;;;;4.87;3.83;;;15.80;99.90;;;;;;5075478;28;20545;-71
2022/10/28 06:39:51;;;;;;;6.20;4.17;;;15.80;99.90;;;;;;5073120;28;20227;-70
2022/10/28 06:42:17;;;;;;;9.00;4.07;;;15.90;99.90;;;;;;5075996;28;20565;-70
2022/10/28 06:44:43;;;;;;;7.00;4.00;;;15.90;99.90;;;;;;5075750;28;20943;-70
2022/10/28 06:47:08;;;;;;;6.27;3.40;;;16.00;99.90;;;;;;5070535;28;20527;-71
2022/10/28 06:49:34;;;;;;;8.33;4.73;;;16.00;99.90;;;;;;5053777;28;20259;-71
2022/10/28 06:51:59;;;;;;;11.43;4.80;;;16.10;99.90;;;;;;5053772;28;20170;-71
2022/10/28 06:54:25;;;;;;;8.43;5.47;;;16.10;99.90;;;;;;5052542;28;20178;-72
2022/10/28 06:56:50;;;;;;;5.67;4.27;;;16.10;99.90;;;;;;5052884;28;20209;-71
2022/10/28 06:59:16;;;;;;;9.90;4.23;;;16.10;99.90;;;;;;5085954;28;20282;-72
2022/10/28 07:01:42;;;;;;;6.50;5.60;;;16.10;99.90;;;;;;5037257;28;20651;-72
2022/10/28 07:04:11;;;;;;;6.10;3.50;;;16.20;99.90;;;;;;5037220;28;20592;-71
2022/10/28 07:06:37;;;;;;;6.70;4.23;;;16.10;99.90;;;;;;5035296;28;20171;-71
2022/10/28 07:09:03;;;;;;;9.83;4.93;;;16.20;99.90;;;;;;5035021;28;20935;-71
2022/10/28 07:11:28;;;;;;;8.30;4.10;;;16.20;99.90;;;;;;5042153;28;20547;-72
2022/10/28 07:13:54;;;;;;;5.17;4.30;;;16.30;99.90;;;;;;5077307;28;20170;-70
2022/10/28 07:16:19;;;;;;;7.43;4.07;;;16.30;99.90;;;;;;5073787;28;20679;-72
2022/10/28 07:18:45;;;;;;;10.13;5.00;;;16.30;99.90;;;;;;5071714;28;20224;-72
2022/10/28 07:21:11;;;;;;;8.93;5.50;;;16.40;99.90;;;;;;5072322;28;20162;-71
2022/10/28 07:23:36;;;;;;;5.43;3.83;;;16.40;99.90;;;;;;5062804;28;20177;-71
2022/10/28 07:26:02;;;;;;;6.80;3.33;;;16.50;99.90;;;;;;5052822;28;20464;-72
2022/10/28 07:28:27;;;;;;;7.50;4.27;;;16.60;99.90;;;;;;5055392;28;20167;-73
2022/10/28 07:30:53;;;;;;;6.70;4.20;;;16.60;99.90;;;;;;5055637;28;20171;-71
2022/10/28 07:33:19;;;;;;;11.03;5.20;;;16.70;99.90;;;;;;5075051;28;20175;-72
2022/10/28 07:35:44;;;;;;;5.77;3.87;;;16.80;99.90;;;;;;5032644;28;20621;-72
2022/10/28 07:38:10;;;;;;;14.30;6.20;;;16.90;99.90;;;;;;5033611;28;20164;-72
2022/10/28 07:40:36;;;;;;;6.17;4.20;;;17.00;99.90;;;;;;5038873;28;20199;-72
2022/10/28 07:43:02;;;;;;;8.37;4.30;;;17.10;99.90;;;;;;5049860;28;20416;-72
2022/10/28 07:45:27;;;;;;;7.43;4.47;;;17.20;99.90;;;;;;5071757;28;20521;-72
2022/10/28 07:47:53;;;;;;;4.83;3.67;;;17.40;99.90;;;;;;5072020;28;20169;-72
2022/10/28 07:50:19;;;;;;;6.50;4.57;;;17.50;99.90;;;;;;5071850;28;20809;-72
2022/10/28 07:52:44;;;;;;;9.83;4.73;;;17.60;99.90;;;;;;5072007;28;20268;-72
2022/10/28 07:55:11;;;;;;;9.83;3.93;;;17.70;99.90;;;;;;5063680;28;20252;-72
2022/10/28 07:57:37;;;;;;;8.23;3.93;;;17.90;99.90;;;;;;5070301;28;20278;-72
2022/10/28 08:00:04;;;;;;;9.13;4.23;;;17.90;99.90;;;;;;5036768;28;20513;-72
2022/10/28 08:02:30;;;;;;;8.40;5.20;;;17.90;99.90;;;;;;5039816;28;20432;-71
2022/10/28 08:04:55;;;;;;;6.70;4.27;;;18.00;99.90;;;;;;5051526;28;20397;-71
2022/10/28 08:07:21;;;;;;;9.43;5.33;;;18.10;99.90;;;;;;5051639;28;20174;-71
2022/10/28 08:09:46;;;;;;;13.20;4.33;;;18.30;99.90;;;;;;5051678;28;20190;-71
2022/10/28 08:12:14;;;;;;;11.23;5.20;;;18.40;99.90;;;;;;5052131;28;20528;-71
2022/10/28 08:14:39;;;;;;;10.53;4.70;;;18.60;99.90;;;;;;5071434;28;20167;-71
2022/10/28 08:17:06;;;;;;;6.40;3.73;;;18.70;99.90;;;;;;5071714;28;20513;-71
2022/10/28 08:19:31;;;;;;;9.23;4.47;;;18.70;99.90;;;;;;5071687;28;20308;-71
2022/10/28 08:21:57;;;;;;;9.37;4.57;;;18.70;99.90;;;;;;5070496;28;20454;-71
2022/10/28 08:24:22;;;;;;;11.53;4.40;;;18.80;99.90;;;;;;5051333;28;20167;-71
2022/10/28 08:26:48;;;;;;;7.90;3.77;;;18.80;99.90;;;;;;5051604;28;20159;-71
2022/10/28 08:29:14;;;;;;;10.03;4.87;;;18.80;99.90;;;;;;5051511;28;20560;-71
2022/10/28 08:31:39;;;;;;;16.43;4.40;;;18.60;99.90;;;;;;5051533;28;20175;-71
2022/10/28 08:34:06;;;;;;;9.13;4.30;;;18.60;99.90;;;;;;5069561;28;20182;-71
2022/10/28 08:36:32;;;;;;;9.03;4.70;;;18.60;99.90;;;;;;5071168;28;20196;-71
2022/10/28 08:39:03;;;;;;;9.43;4.67;;;18.70;99.90;;;;;;5071461;28;20470;-71
2022/10/28 08:41:54;;;;;;;6.57;4.47;;;18.70;99.90;;;;;;5074899;28;20466;-71
2022/10/28 08:44:41;;;;;;;7.13;4.20;;;18.80;99.90;;;;;;5070717;28;20491;-71
2022/10/28 08:47:11;;;;;;;5.50;4.00;;;18.80;99.90;;;;;;5055252;28;20397;-71
2022/10/28 08:49:39;;;;;;;6.93;4.23;;;18.90;99.90;;;;;;5055035;28;20459;-71
2022/10/28 08:52:14;;;;;;;5.50;4.17;;;19.10;99.90;;;;;;5055104;28;20409;-71
2022/10/28 08:54:49;;;;;;;6.00;4.40;;;19.20;99.90;;;;;;5054942;28;20396;-71
2022/10/28 08:57:31;;;;;;;8.70;4.93;;;19.60;99.90;;;;;;5065308;28;20412;-71
2022/10/28 08:59:58;;;;;;;5.50;4.70;;;19.90;99.90;;;;;;5075021;28;20469;-71
2022/10/28 09:02:27;;;;;;;7.70;3.60;;;20.20;99.90;;;;;;5073743;28;20419;-71
2022/10/28 09:05:03;;;;;;;6.93;3.60;;;20.20;99.90;;;;;;5074385;28;20491;-72
2022/10/28 09:07:32;;;;;;;10.57;4.33;;;20.60;99.90;;;;;;5074733;28;20901;-71
2022/10/28 09:09:58;;;;;;;7.43;4.23;;;21.60;99.90;;;;;;5056723;28;20479;-71
2022/10/28 09:12:43;;;;;;;10.30;3.60;;;22.30;99.90;;;;;;5054778;28;20397;-72
2022/10/28 09:15:17;;;;;;;9.63;3.87;;;23.20;99.90;;;;;;5054501;28;20624;-72
2022/10/28 09:18:04;;;;;;;6.90;4.77;;;23.90;99.90;;;;;;5054705;28;20794;-73
2022/10/28 09:20:29;;;;;;;30.77;5.50;;;24.50;99.90;;;;;;5060562;28;20431;-71
2022/10/28 09:23:07;;;;;;;8.60;3.93;;;24.80;99.90;;;;;;5074597;28;20918;-71
2022/10/28 09:25:47;;;;;;;9.37;3.97;;;25.10;99.90;;;;;;5074333;28;20173;-70
2022/10/28 09:28:31;;;;;;;5.60;4.20;;;25.60;99.90;;;;;;5074928;28;20432;-71
2022/10/28 09:31:01;;;;;;;7.03;3.80;;;26.20;99.90;;;;;;5076664;28;20403;-71
2022/10/28 09:33:41;;;;;;;9.07;3.40;;;26.40;99.90;;;;;;5060945;28;20763;-71
2022/10/28 09:36:13;;;;;;;11.17;3.97;;;26.20;99.90;;;;;;5055507;28;20811;-70
2022/10/28 09:38:39;;;;;;;6.13;3.50;;;26.10;99.90;;;;;;5054197;28;20409;-70
2022/10/28 09:41:18;;;;;;;15.77;3.90;;;26.30;99.90;;;;;;5066955;28;20418;-70
2022/10/28 09:43:49;;;;;;;5.60;3.80;;;26.00;99.90;;;;;;5073712;28;20412;-70
2022/10/28 09:46:17;;;;;;;9.50;3.60;;;26.10;99.90;;;;;;5073998;28;20400;-70
2022/10/28 09:48:48;;;;;;;9.40;3.83;;;26.30;99.90;;;;;;5073887;28;20896;-70
2022/10/28 09:51:32;;;;;;;8.93;3.40;;;26.10;99.90;;;;;;5065195;28;20421;-70
2022/10/28 09:53:59;;;;;;;7.50;3.60;;;26.20;99.90;;;;;;5054083;28;20429;-70
2022/10/28 09:56:26;;;;;;;5.43;3.30;;;26.30;99.90;;;;;;5053661;28;20484;-71
2022/10/28 09:58:54;;;;;;;6.00;3.90;;;26.70;99.90;;;;;;5053914;28;20790;-71
2022/10/28 10:01:20;;;;;;;8.40;4.13;;;27.30;99.90;;;;;;5072078;28;20850;-71
2022/10/28 10:03:50;;;;;;;9.93;3.30;;;27.90;99.90;;;;;;5076087;28;20428;-71
2022/10/28 10:06:32;;;;;;;7.33;3.83;;;27.90;99.90;;;;;;5074630;28;20639;-71
2022/10/28 10:08:59;;;;;;;7.27;4.47;;;28.00;99.90;;;;;;5073664;28;20998;-71
2022/10/28 10:11:35;;;;;;;6.43;3.23;;;28.30;99.90;;;;;;5058026;28;20414;-71
2022/10/28 10:14:13;;;;;;;11.30;4.07;;;28.30;98.60;;;;;;5057291;28;20492;-70
2022/10/28 10:16:43;;;;;;;10.00;4.13;;;27.80;99.10;;;;;;5057381;28;20445;-71
2022/10/28 10:19:10;;;;;;;5.87;3.43;;;27.30;99.90;;;;;;5059220;28;20429;-72
2022/10/28 10:21:54;;;;;;;8.60;4.13;;;27.30;99.90;;;;;;5075026;28;20821;-70
2022/10/28 10:24:25;;;;;;;8.20;3.70;;;27.60;99.90;;;;;;5073195;28;20399;-70
2022/10/28 10:26:52;;;;;;;8.30;3.80;;;27.80;99.90;;;;;;5073349;28;20445;-70
2022/10/28 10:29:19;;;;;;;5.80;3.53;;;28.00;99.90;;;;;;5071155;28;20788;-70
2022/10/28 10:31:46;;;;;;;6.20;5.03;;;28.10;99.90;;;;;;5053297;28;20401;-70
2022/10/28 10:34:23;;;;;;;6.40;3.50;;;28.10;99.90;;;;;;5053135;28;20432;-70
2022/10/28 10:36:52;;;;;;;5.30;4.00;;;28.20;99.90;;;;;;5085426;28;20506;-70
2022/10/28 10:39:30;;;;;;;7.50;4.20;;;28.50;99.90;;;;;;5056855;28;20425;-70
2022/10/28 10:41:55;;;;;;;4.60;3.40;;;28.60;99.80;;;;;;5073105;28;20756;-70
2022/10/28 10:44:21;;;;;;;8.53;3.57;;;28.40;99.70;;;;;;5072744;28;20407;-71
2022/10/28 10:46:59;;;;;;;6.63;3.93;;;28.10;99.90;;;;;;5072962;28;20575;-70
2022/10/28 10:49:25;;;;;;;11.07;3.97;;;28.00;99.90;;;;;;5067443;28;20210;-71
2022/10/28 10:51:52;;;;;;;8.80;3.60;;;27.60;99.90;;;;;;5052876;28;20878;-71
2022/10/28 10:54:19;;;;;;;12.40;3.60;;;27.70;99.90;;;;;;5052564;28;20409;-71
2022/10/28 10:56:45;;;;;;;6.10;4.13;;;28.10;99.90;;;;;;5053728;28;20477;-71
2022/10/28 10:59:26;;;;;;;12.43;4.00;;;28.60;99.90;;;;;;5055298;28;20483;-71
2022/10/28 11:01:53;;;;;;;3.80;2.60;;;29.60;98.40;;;;;;5067130;28;20213;-72
2022/10/28 11:04:21;;;;;;;5.80;3.20;;;30.00;89.80;;;;;;5076184;28;20416;-72
2022/10/28 11:06:55;;;;;;;3.70;2.93;;;30.80;81.80;;;;;;5078144;28;20413;-71
2022/10/28 11:09:29;;;;;;;8.97;2.93;;;32.00;72.70;;;;;;5076634;28;20473;-71
2022/10/28 11:11:55;;;;;;;6.40;3.20;;;32.60;67.10;;;;;;5058424;28;20426;-71
2022/10/28 11:14:30;;;;;;;5.20;3.30;;;32.90;63.30;;;;;;5052716;28;20455;-71
2022/10/28 11:16:58;;;;;;;7.97;2.87;;;33.20;61.70;;;;;;5054764;28;20239;-71
2022/10/28 11:19:35;;;;;;;6.53;3.67;;;33.90;59.30;;;;;;5086403;28;20425;-71
2022/10/28 11:22:32;;;;;;;9.43;3.10;;;34.10;57.80;;;;;;5070758;28;20514;-71
2022/10/28 11:25:19;;;;;;;4.07;2.67;;;33.50;56.80;;;;;;5073541;28;20488;-72
2022/10/28 11:28:05;;;;;;;6.03;2.97;;;33.40;56.40;;;;;;5073489;28;20496;-71
2022/10/28 11:31:00;;;;;;;7.70;4.67;;;32.80;56.50;;;;;;5072843;28;20478;-71
2022/10/28 11:33:36;;;;;;;7.30;3.37;;;32.60;57.10;;;;;;5060248;28;20522;-72
2022/10/28 11:36:46;;;;;;;8.83;2.80;;;32.70;57.30;;;;;;5086788;28;20530;-71
2022/10/28 11:39:20;;;;;;;5.30;3.53;;;32.80;56.90;;;;;;5084830;28;20520;-72
2022/10/28 11:42:10;;;;;;;36.00;5.57;;;32.80;56.70;;;;;;5065756;28;20430;-71
2022/10/28 11:44:52;;;;;;;5.43;2.87;;;31.90;57.40;;;;;;5071935;28;20395;-71
2022/10/28 11:47:47;;;;;;;3.40;2.87;;;31.00;59.00;;;;;;5072128;28;20397;-71
2022/10/28 11:50:22;;;;;;;6.30;3.00;;;30.30;59.90;;;;;;5096067;28;20822;-71
2022/10/28 11:53:15;;;;;;;7.00;2.93;;;29.80;62.30;;;;;;5112496;28;20509;-72
2022/10/28 11:55:49;;;;;;;5.57;2.87;;;29.30;64.50;;;;;;5103856;28;20466;-71
2022/10/28 11:58:30;;;;;;;4.63;3.00;;;28.90;64.50;;;;;;5111200;28;20414;-71
2022/10/28 12:01:09;;;;;;;5.57;2.50;;;29.30;66.20;;;;;;5053108;28;20437;-71
2022/10/28 12:03:53;;;;;;;6.07;3.07;;;29.80;64.20;;;;;;5021596;28;20465;-71
2022/10/28 12:06:51;;;;;;;6.37;3.10;;;30.50;62.20;;;;;;5032431;28;20518;-72
2022/10/28 12:09:34;;;;;;;7.87;2.90;;;30.80;60.80;;;;;;5034012;28;20457;-70
2022/10/28 12:12:38;;;;;;;7.90;2.60;;;31.50;59.50;;;;;;4997835;28;20427;-71
2022/10/28 12:18:32;;;;;;;10.97;3.00;;;32.20;57.30;;;;;;5190676;27;20505;-72
2022/10/28 12:21:33;;;;;;;11.47;3.83;;;32.00;56.50;;;;;;5149057;27;20539;-72
2022/10/28 12:23:59;;;;;;;3.97;2.60;;;32.10;57.40;;;;;;5064919;28;1194957;-71
2022/10/28 12:26:53;;;;;;;6.27;2.67;;;32.00;56.80;;;;;;5109582;28;20160;-71
2022/10/28 12:29:36;;;;;;;3.57;2.53;;;31.90;56.40;;;;;;5109686;28;20407;-72
2022/10/28 12:32:13;;;;;;;12.83;3.60;;;32.40;56.60;;;;;;5109648;28;20426;-72
2022/10/28 12:34:45;;;;;;;4.20;2.43;;;32.40;55.80;;;;;;5112802;28;20434;-72
2022/10/28 12:37:26;;;;;;;4.30;2.77;;;32.10;55.90;;;;;;5112115;28;20959;-72
2022/10/28 12:40:04;;;;;;;4.77;2.40;;;31.70;56.50;;;;;;5109714;28;20419;-72
2022/10/28 12:42:35;;;;;;;6.40;3.00;;;31.10;57.20;;;;;;5070889;28;20485;-72
2022/10/28 12:45:05;;;;;;;4.90;3.27;;;30.80;58.30;;;;;;5070500;28;20443;-72
2022/10/28 12:47:37;;;;;;;3.20;2.10;;;30.30;59.50;;;;;;5070281;28;20823;-72
2022/10/28 12:50:31;;;;;;;5.20;3.13;;;30.30;60.10;;;;;;5068626;28;20417;-72
2022/10/28 12:53:02;;;;;;;6.33;2.13;;;30.60;58.90;;;;;;5109997;28;20486;-71
2022/10/28 12:55:53;;;;;;;7.17;3.30;;;30.90;58.90;;;;;;5110645;28;20759;-71
2022/10/28 12:58:28;;;;;;;4.20;2.50;;;31.30;58.70;;;;;;5108289;28;20855;-72
2022/10/28 13:00:59;;;;;;;5.17;2.70;;;31.50;57.70;;;;;;5109046;28;20395;-72
2022/10/28 13:03:25;;;;;;;10.03;3.50;;;31.40;58.00;;;;;;5095159;28;20753;-72
2022/10/28 13:06:09;;;;;;;7.90;2.70;;;31.00;58.90;;;;;;5088425;28;20394;-72
2022/10/28 13:08:50;;;;;;;6.53;2.47;;;30.60;59.30;;;;;;5087295;28;20192;-71
2022/10/28 13:11:18;;;;;;;10.53;4.10;;;30.40;60.10;;;;;;5088748;28;20388;-71